Pilger, Nebraska
Current Conditions -  °F | °C
As of 9:35 AM on Thursday 30 Oct 2014 (Local Time) from KLCG Reporting Station
Clear Clear  
Wind Chill: 42°   Ceiling: Unl
Heat Index: 48°   Visibility: 10mi
Dew Point: 38°   Wind: 14mph
Humidity: 69%   Direction: 320°NW
Pressure: 30.07"   Gusts: 20mph
Location:  42.01°N, 97.05°W
Report Text: KLCG 301435Z AUTO 32012G17KT 10SM CLR 09/03 A3007 RMK AO2 T00880033
Loading
Personal Weather Stations






























Interactive Weather Map
Tropical Storm Tracking
New forecast layout! Learn more

10-Day Weather Forecast

Advertisements
Track Severe Weather on mobile